createdAt,value
2022-12-28T00:01:47.404Z,0.50
2022-12-28T00:04:15.415Z,0.60
2022-12-28T00:06:42.098Z,0.60
2022-12-28T00:09:10.850Z,0.60
2022-12-28T00:11:37.829Z,0.70
2022-12-28T00:14:04.801Z,0.70
2022-12-28T00:16:33.150Z,1.70
2022-12-28T00:19:01.329Z,0.70
2022-12-28T00:21:28.475Z,0.70
2022-12-28T00:23:57.243Z,0.60
2022-12-28T00:26:25.267Z,0.50
2022-12-28T00:28:53.512Z,0.50
2022-12-28T00:31:22.142Z,0.50
2022-12-28T00:33:48.792Z,0.50
2022-12-28T00:36:15.817Z,0.50
2022-12-28T00:38:42.996Z,0.60
2022-12-28T00:41:10.120Z,0.70
2022-12-28T00:43:37.462Z,0.80
2022-12-28T00:46:04.114Z,0.80
2022-12-28T00:48:30.797Z,1.70
2022-12-28T00:51:01.312Z,0.90
2022-12-28T00:53:27.942Z,0.90
2022-12-28T00:55:54.591Z,1.00
2022-12-28T00:58:21.154Z,1.10
2022-12-28T01:00:48.876Z,1.00
2022-12-28T01:03:15.854Z,1.10
2022-12-28T01:05:42.524Z,1.10
2022-12-28T01:08:09.180Z,1.10
2022-12-28T01:10:38.312Z,1.20
2022-12-28T01:13:04.913Z,1.20
2022-12-28T01:15:31.492Z,1.20
2022-12-28T01:17:58.105Z,1.20
2022-12-28T01:20:24.692Z,1.20
2022-12-28T01:22:51.324Z,1.20
2022-12-28T01:25:17.884Z,1.20
2022-12-28T01:27:44.523Z,1.20
2022-12-28T01:30:13.012Z,1.20
2022-12-28T01:32:39.783Z,1.20
2022-12-28T01:35:06.618Z,1.20
2022-12-28T01:37:33.283Z,1.20
2022-12-28T01:39:59.853Z,1.30
2022-12-28T01:42:26.636Z,1.30
2022-12-28T01:44:53.363Z,1.30
2022-12-28T01:47:33.382Z,1.40
2022-12-28T01:50:05.474Z,1.40
2022-12-28T01:52:32.105Z,1.40
2022-12-28T01:55:08.341Z,1.50
2022-12-28T01:57:41.071Z,1.50
2022-12-28T02:00:11.015Z,1.50
2022-12-28T02:02:38.478Z,1.40
2022-12-28T02:05:05.733Z,1.50
2022-12-28T02:07:52.633Z,1.50
2022-12-28T02:10:43.571Z,1.40
2022-12-28T02:13:06.722Z,1.50
2022-12-28T02:15:33.416Z,1.50
2022-12-28T02:18:00.198Z,1.50
2022-12-28T02:20:30.391Z,1.50
2022-12-28T02:23:03.616Z,1.50
2022-12-28T02:25:30.150Z,1.50
2022-12-28T02:28:13.602Z,1.50
2022-12-28T02:30:43.531Z,1.60
2022-12-28T02:33:25.016Z,1.60
2022-12-28T02:35:58.045Z,1.60
2022-12-28T02:38:34.836Z,1.60
2022-12-28T02:41:04.551Z,1.70
2022-12-28T02:43:32.039Z,1.70
2022-12-28T02:46:26.770Z,1.70
2022-12-28T02:49:11.857Z,1.70
2022-12-28T02:52:06.574Z,1.70
2022-12-28T02:54:54.970Z,1.70
2022-12-28T02:57:29.864Z,1.80
2022-12-28T03:00:07.983Z,1.80
2022-12-28T03:02:43.148Z,1.80
2022-12-28T03:05:12.880Z,1.80
2022-12-28T03:08:06.308Z,1.90
2022-12-28T03:10:35.541Z,1.90
2022-12-28T03:13:29.507Z,1.90
2022-12-28T03:15:59.467Z,1.90
2022-12-28T03:18:45.581Z,2.00
2022-12-28T03:21:30.621Z,2.00
2022-12-28T03:24:16.262Z,2.00
2022-12-28T03:27:05.151Z,2.00
2022-12-28T03:29:53.674Z,2.00
2022-12-28T03:32:20.443Z,2.00
2022-12-28T03:34:47.079Z,1.90
2022-12-28T03:37:17.833Z,2.00
2022-12-28T03:39:47.419Z,2.00
2022-12-28T03:42:34.794Z,1.90
2022-12-28T03:45:46.498Z,2.00
2022-12-28T03:48:07.178Z,2.00
2022-12-28T03:50:38.602Z,2.10
2022-12-28T03:53:05.358Z,2.10
2022-12-28T03:55:31.994Z,2.10
2022-12-28T03:57:58.610Z,2.20
2022-12-28T04:00:25.256Z,2.20
2022-12-28T04:02:51.973Z,2.20
2022-12-28T04:05:18.662Z,2.20
2022-12-28T04:07:45.330Z,2.20
2022-12-28T04:10:11.967Z,2.30
2022-12-28T04:12:38.630Z,2.30
2022-12-28T04:15:06.075Z,2.40
2022-12-28T04:17:32.733Z,2.30
2022-12-28T04:19:59.323Z,2.40
2022-12-28T04:22:25.969Z,2.50
2022-12-28T04:24:52.545Z,2.40
2022-12-28T04:27:19.557Z,2.50
2022-12-28T04:29:46.139Z,2.50
2022-12-28T04:32:12.850Z,2.50
2022-12-28T04:34:44.713Z,2.60
2022-12-28T04:37:14.814Z,2.50
2022-12-28T04:39:55.500Z,2.50
2022-12-28T04:42:24.601Z,2.60
2022-12-28T04:44:51.251Z,2.50
2022-12-28T04:47:17.805Z,2.50
2022-12-28T04:49:44.576Z,2.50
2022-12-28T04:52:11.265Z,2.50
2022-12-28T04:54:37.812Z,2.50
2022-12-28T04:57:04.522Z,2.50
2022-12-28T04:59:31.071Z,2.50
2022-12-28T05:01:57.763Z,2.50
2022-12-28T05:04:24.444Z,2.50
2022-12-28T05:06:51.095Z,2.50
2022-12-28T05:09:19.398Z,2.60
2022-12-28T05:11:46.127Z,2.50
2022-12-28T05:14:12.745Z,2.60
2022-12-28T05:16:39.522Z,2.60
2022-12-28T05:19:06.282Z,2.60
2022-12-28T05:21:32.891Z,2.70
2022-12-28T05:23:59.556Z,2.60
2022-12-28T05:26:27.649Z,2.60
2022-12-28T05:28:54.928Z,2.70
2022-12-28T05:31:22.302Z,2.60
2022-12-28T05:33:49.396Z,2.70
2022-12-28T05:36:17.619Z,2.70
2022-12-28T05:38:44.659Z,2.70
2022-12-28T05:41:15.704Z,2.60
2022-12-28T05:43:42.828Z,2.60
2022-12-28T05:46:10.996Z,2.70
2022-12-28T05:48:38.581Z,2.70
2022-12-28T05:51:06.335Z,2.70
2022-12-28T05:53:33.120Z,2.60
2022-12-28T05:56:02.433Z,2.70
2022-12-28T05:58:29.185Z,2.70
2022-12-28T06:01:03.612Z,2.80
2022-12-28T06:03:30.380Z,2.70
2022-12-28T06:05:57.022Z,2.80
2022-12-28T06:08:23.719Z,2.80
2022-12-28T06:10:50.297Z,2.80
2022-12-28T06:13:16.846Z,2.80
2022-12-28T06:15:43.546Z,2.80
2022-12-28T06:18:10.146Z,2.80
2022-12-28T06:20:36.840Z,2.80
2022-12-28T06:23:03.474Z,2.80
2022-12-28T06:25:30.070Z,2.90
2022-12-28T06:27:56.628Z,2.90
2022-12-28T06:30:23.263Z,2.90
2022-12-28T06:32:49.890Z,2.90
2022-12-28T06:35:16.529Z,2.90
2022-12-28T06:37:43.178Z,2.80
2022-12-28T06:40:09.952Z,2.90
2022-12-28T06:42:36.600Z,2.80
2022-12-28T06:45:03.284Z,2.80
2022-12-28T06:47:29.853Z,2.80
2022-12-28T06:49:56.473Z,2.80
2022-12-28T06:52:23.041Z,2.80
2022-12-28T06:54:49.618Z,2.80
2022-12-28T06:57:16.260Z,2.80
2022-12-28T06:59:42.796Z,2.80
2022-12-28T07:02:09.638Z,2.80
2022-12-28T07:04:36.295Z,2.80
2022-12-28T07:07:03.060Z,2.80
2022-12-28T07:09:29.696Z,2.90
2022-12-28T07:11:56.300Z,2.90
2022-12-28T07:14:22.916Z,2.90
2022-12-28T07:16:50.024Z,2.90
2022-12-28T07:19:16.584Z,2.90
2022-12-28T07:21:43.197Z,2.90
2022-12-28T07:24:09.850Z,2.90
2022-12-28T07:26:37.343Z,2.90
2022-12-28T07:29:05.068Z,2.80
2022-12-28T07:31:38.375Z,2.80
2022-12-28T07:34:10.575Z,2.90
2022-12-28T07:36:37.121Z,2.90
2022-12-28T07:39:03.853Z,2.90
2022-12-28T07:41:32.922Z,2.90
2022-12-28T07:44:00.241Z,2.90
2022-12-28T07:46:28.060Z,2.90
2022-12-28T07:48:54.935Z,2.90
2022-12-28T07:51:23.102Z,2.90
2022-12-28T07:53:50.845Z,4.20
2022-12-28T07:56:18.005Z,2.90
2022-12-28T07:58:52.159Z,2.90
2022-12-28T08:01:20.061Z,2.90
2022-12-28T08:03:47.060Z,3.00
2022-12-28T08:06:13.845Z,3.00
2022-12-28T08:08:44.545Z,3.00
2022-12-28T08:11:12.850Z,3.00
2022-12-28T08:13:40.608Z,3.00
2022-12-28T08:16:07.436Z,3.00
2022-12-28T08:18:34.412Z,3.00
2022-12-28T08:21:02.278Z,3.10
2022-12-28T08:23:29.916Z,3.10
2022-12-28T08:25:56.662Z,3.20
2022-12-28T08:28:23.413Z,3.20
2022-12-28T08:30:50.138Z,3.30
2022-12-28T08:33:16.724Z,5.40
2022-12-28T08:35:43.360Z,3.40
2022-12-28T08:38:10.038Z,3.40
2022-12-28T08:40:36.594Z,3.50
2022-12-28T08:43:03.368Z,3.50
2022-12-28T08:45:30.046Z,3.60
2022-12-28T08:47:56.659Z,3.60
2022-12-28T08:50:29.523Z,3.60
2022-12-28T08:52:58.044Z,3.60
2022-12-28T08:55:24.683Z,3.60
2022-12-28T08:57:51.252Z,3.60
2022-12-28T09:00:18.008Z,3.70
2022-12-28T09:02:44.680Z,3.60
2022-12-28T09:05:11.380Z,3.70
2022-12-28T09:07:38.008Z,3.70
2022-12-28T09:10:04.958Z,3.80
2022-12-28T09:12:31.623Z,3.70
2022-12-28T09:14:58.251Z,3.80
2022-12-28T09:17:24.897Z,3.90
2022-12-28T09:19:51.538Z,3.90
2022-12-28T09:22:18.138Z,4.00
2022-12-28T09:24:44.724Z,4.00
2022-12-28T09:27:11.355Z,5.00
2022-12-28T09:29:38.006Z,4.00
2022-12-28T09:32:04.617Z,4.10
2022-12-28T09:34:36.910Z,4.10
2022-12-28T09:37:04.572Z,4.20
2022-12-28T09:39:31.363Z,4.20
2022-12-28T09:42:03.303Z,4.30
2022-12-28T09:44:48.993Z,4.30
2022-12-28T09:47:19.720Z,4.30
2022-12-28T09:49:54.722Z,4.40
2022-12-28T09:52:30.185Z,4.50
2022-12-28T09:54:59.090Z,4.50
2022-12-28T09:57:31.023Z,4.60
2022-12-28T09:59:57.710Z,4.70
2022-12-28T10:02:30.686Z,4.80
2022-12-28T10:04:57.485Z,4.80
2022-12-28T10:07:24.161Z,4.90
2022-12-28T10:09:50.839Z,5.00
2022-12-28T10:12:19.753Z,5.10
2022-12-28T10:14:48.561Z,5.20
2022-12-28T10:17:16.817Z,5.30
2022-12-28T10:19:47.462Z,7.50
2022-12-28T10:22:16.840Z,5.40
2022-12-28T10:24:44.000Z,5.60
2022-12-28T10:27:13.390Z,5.60
2022-12-28T10:29:41.520Z,5.80
2022-12-28T10:32:14.666Z,7.00
2022-12-28T10:34:56.788Z,7.50
2022-12-28T10:37:23.832Z,6.10
2022-12-28T10:39:52.898Z,6.30
2022-12-28T10:42:27.429Z,6.70
2022-12-28T10:44:56.843Z,6.30
2022-12-28T10:47:36.003Z,6.40
2022-12-28T10:50:35.996Z,6.20
2022-12-28T10:52:57.868Z,6.20
2022-12-28T10:55:26.138Z,6.20
2022-12-28T10:58:27.490Z,6.20
2022-12-28T11:00:39.741Z,6.20
2022-12-28T11:03:17.686Z,6.20
2022-12-28T11:05:44.489Z,6.10
2022-12-28T11:08:14.667Z,6.10
2022-12-28T11:10:41.345Z,6.20
2022-12-28T11:13:21.753Z,6.20
2022-12-28T11:15:48.902Z,6.20
2022-12-28T11:18:16.875Z,6.20
2022-12-28T11:20:45.581Z,6.10
2022-12-28T11:23:17.851Z,6.10
2022-12-28T11:25:44.541Z,6.20
2022-12-28T11:28:16.276Z,6.30
2022-12-28T11:30:43.857Z,6.20
2022-12-28T11:33:33.595Z,6.20
2022-12-28T11:36:01.734Z,4.40
2022-12-28T11:38:51.037Z,6.30
2022-12-28T11:41:26.347Z,6.30
2022-12-28T11:43:57.905Z,6.40
2022-12-28T11:46:24.644Z,6.50
2022-12-28T11:48:54.312Z,6.50
2022-12-28T11:51:20.962Z,6.50
2022-12-28T11:53:48.008Z,6.60
2022-12-28T11:56:15.167Z,6.50
2022-12-28T11:58:42.269Z,6.50
2022-12-28T12:01:09.657Z,6.60
2022-12-28T12:03:55.013Z,6.60
2022-12-28T12:06:41.644Z,6.60
2022-12-28T12:09:28.788Z,6.50
2022-12-28T12:11:58.873Z,6.50
2022-12-28T12:14:31.302Z,6.50
2022-12-28T12:17:03.283Z,6.30
2022-12-28T12:19:32.117Z,6.40
2022-12-28T12:22:10.338Z,6.30
2022-12-28T12:24:44.315Z,6.20
2022-12-28T12:27:13.440Z,6.20
2022-12-28T12:29:43.788Z,6.20
2022-12-28T12:32:18.097Z,6.20
2022-12-28T12:34:45.493Z,6.20
2022-12-28T12:37:21.166Z,6.20
2022-12-28T12:40:06.508Z,6.20
2022-12-28T12:42:50.093Z,6.30
2022-12-28T12:45:19.616Z,6.30
2022-12-28T12:47:56.796Z,6.40
2022-12-28T12:50:29.547Z,6.50
2022-12-28T12:53:15.154Z,6.60
2022-12-28T12:56:00.501Z,6.60
2022-12-28T12:58:56.635Z,6.70
2022-12-28T13:01:29.682Z,6.80
2022-12-28T13:03:58.957Z,7.20
2022-12-28T13:06:27.635Z,6.90
2022-12-28T13:09:00.442Z,6.90
2022-12-28T13:11:30.603Z,6.90
2022-12-28T13:13:57.299Z,6.90
2022-12-28T13:16:25.018Z,8.50
2022-12-28T13:18:54.648Z,6.90
2022-12-28T13:21:22.473Z,6.80
2022-12-28T13:23:49.943Z,6.90
2022-12-28T13:26:16.779Z,8.40
2022-12-28T13:28:51.567Z,6.80
2022-12-28T13:31:20.737Z,6.70
2022-12-28T13:34:16.986Z,6.70
2022-12-28T13:36:56.397Z,6.70
2022-12-28T13:39:23.674Z,6.70
2022-12-28T13:41:51.798Z,6.70
2022-12-28T13:44:27.545Z,6.70
2022-12-28T13:47:14.503Z,6.60
2022-12-28T13:49:47.108Z,6.60
2022-12-28T13:52:17.287Z,7.70
2022-12-28T13:54:45.504Z,6.60
2022-12-28T13:57:45.371Z,6.60
2022-12-28T14:00:01.011Z,6.60
2022-12-28T14:02:28.810Z,9.10
2022-12-28T14:04:55.883Z,6.50
2022-12-28T14:07:25.882Z,6.60
2022-12-28T14:09:53.155Z,6.50
2022-12-28T14:12:20.110Z,6.50
2022-12-28T14:14:47.324Z,6.60
2022-12-28T14:17:14.467Z,6.60
2022-12-28T14:19:41.869Z,6.60
2022-12-28T14:22:24.940Z,6.50
2022-12-28T14:24:58.520Z,6.50
2022-12-28T14:27:25.326Z,6.40
2022-12-28T14:29:51.922Z,6.50
2022-12-28T14:32:20.397Z,6.40
2022-12-28T14:34:51.054Z,6.40
2022-12-28T14:37:27.044Z,6.40
2022-12-28T14:39:58.111Z,6.30
2022-12-28T14:42:25.590Z,6.30
2022-12-28T14:44:56.222Z,6.30
2022-12-28T14:47:33.354Z,6.30
2022-12-28T14:50:01.351Z,6.30
2022-12-28T14:52:41.842Z,6.30
2022-12-28T14:55:21.249Z,6.30
2022-12-28T14:57:49.509Z,6.30
2022-12-28T15:00:16.452Z,6.30
2022-12-28T15:02:43.326Z,6.30
2022-12-28T15:05:28.826Z,6.20
2022-12-28T15:07:55.476Z,6.10
2022-12-28T15:10:22.133Z,6.10
2022-12-28T15:12:48.767Z,6.00
2022-12-28T15:15:15.467Z,7.10
2022-12-28T15:17:42.042Z,6.00
2022-12-28T15:20:08.783Z,6.00
2022-12-28T15:22:35.414Z,5.90
2022-12-28T15:25:02.566Z,5.90
2022-12-28T15:27:29.230Z,7.90
2022-12-28T15:30:05.463Z,6.00
2022-12-28T15:32:33.169Z,5.90
2022-12-28T15:34:59.735Z,5.90
2022-12-28T15:37:26.350Z,5.90
2022-12-28T15:39:52.975Z,5.90
2022-12-28T15:42:19.611Z,5.80
2022-12-28T15:44:48.421Z,5.80
2022-12-28T15:47:15.125Z,5.80
2022-12-28T15:49:41.796Z,5.80
2022-12-28T15:52:08.424Z,5.70
2022-12-28T15:54:35.065Z,5.70
2022-12-28T15:57:01.908Z,6.90
2022-12-28T15:59:28.858Z,5.60
2022-12-28T16:01:55.619Z,5.60
2022-12-28T16:04:22.307Z,5.60
2022-12-28T16:06:48.945Z,5.50
2022-12-28T16:09:15.577Z,5.50
2022-12-28T16:11:42.966Z,5.50
2022-12-28T16:14:14.312Z,5.50
2022-12-28T16:16:40.995Z,5.40
2022-12-28T16:19:07.701Z,5.50
2022-12-28T16:21:34.540Z,5.50
2022-12-28T16:24:01.239Z,5.50
2022-12-28T16:26:28.286Z,5.50
2022-12-28T16:28:55.244Z,5.60
2022-12-28T16:31:23.639Z,5.60
2022-12-28T16:33:54.147Z,5.60
2022-12-28T16:36:21.591Z,5.60
2022-12-28T16:38:48.526Z,5.60
2022-12-28T16:41:15.180Z,5.60
2022-12-28T16:43:41.878Z,5.60
2022-12-28T16:46:08.967Z,5.60
2022-12-28T16:48:36.268Z,5.60
2022-12-28T16:51:03.033Z,7.40
2022-12-28T16:53:29.826Z,5.50
2022-12-28T16:55:59.368Z,5.50
2022-12-28T16:58:26.022Z,5.50
2022-12-28T17:00:52.726Z,5.40
2022-12-28T17:03:19.456Z,5.40
2022-12-28T17:05:49.157Z,5.40
2022-12-28T17:08:15.795Z,5.30
2022-12-28T17:10:43.959Z,5.30
2022-12-28T17:13:11.105Z,5.20
2022-12-28T17:15:41.172Z,5.20
2022-12-28T17:18:07.940Z,5.10
2022-12-28T17:20:38.174Z,5.10
2022-12-28T17:23:05.997Z,5.10
2022-12-28T17:25:33.454Z,6.50
2022-12-28T17:28:00.188Z,5.00
2022-12-28T17:30:27.566Z,5.00
2022-12-28T17:32:54.184Z,5.00
2022-12-28T17:35:20.936Z,4.90
2022-12-28T17:37:47.549Z,4.90
2022-12-28T17:40:14.189Z,4.80
2022-12-28T17:42:40.940Z,4.80
2022-12-28T17:45:11.751Z,4.80
2022-12-28T17:47:39.132Z,4.70
2022-12-28T17:50:06.572Z,4.70
2022-12-28T17:52:33.264Z,4.70
2022-12-28T17:54:59.939Z,6.80
2022-12-28T17:57:26.590Z,4.60
2022-12-28T17:59:53.229Z,4.60
2022-12-28T18:02:19.941Z,4.60
2022-12-28T18:04:46.721Z,4.50
2022-12-28T18:07:13.302Z,4.60
2022-12-28T18:09:39.905Z,4.50
2022-12-28T18:12:06.587Z,4.50
2022-12-28T18:14:33.213Z,4.50
2022-12-28T18:16:59.959Z,4.60
2022-12-28T18:19:26.643Z,4.60
2022-12-28T18:21:53.308Z,4.60
2022-12-28T18:24:21.123Z,4.70
2022-12-28T18:26:48.100Z,4.70
2022-12-28T18:29:14.783Z,4.60
2022-12-28T18:31:41.477Z,4.70
2022-12-28T18:34:08.231Z,4.70
2022-12-28T18:36:34.836Z,4.70
2022-12-28T18:39:02.177Z,4.70
2022-12-28T18:41:33.735Z,4.70
2022-12-28T18:44:02.912Z,4.70
2022-12-28T18:46:29.808Z,4.80
2022-12-28T18:48:56.750Z,4.80
2022-12-28T18:51:23.500Z,4.80
2022-12-28T18:53:50.913Z,5.90
2022-12-28T18:56:18.994Z,4.90
2022-12-28T18:58:49.756Z,5.00
2022-12-28T19:01:55.953Z,5.00
2022-12-28T19:04:07.598Z,5.00
2022-12-28T19:06:34.828Z,5.00
2022-12-28T19:09:01.482Z,5.10
2022-12-28T19:11:28.812Z,5.10
2022-12-28T19:13:55.398Z,5.10
2022-12-28T19:16:28.820Z,5.00
2022-12-28T19:18:58.031Z,5.00
2022-12-28T19:21:26.713Z,5.00
2022-12-28T19:23:57.785Z,5.00
2022-12-28T19:26:24.828Z,4.90
2022-12-28T19:28:51.787Z,4.90
2022-12-28T19:31:18.571Z,4.90
2022-12-28T19:33:45.293Z,4.80
2022-12-28T19:36:12.632Z,4.80
2022-12-28T19:38:39.581Z,4.80
2022-12-28T19:41:10.835Z,4.80
2022-12-28T19:43:37.527Z,4.70
2022-12-28T19:46:05.490Z,5.40
2022-12-28T19:48:32.165Z,4.70
2022-12-28T19:50:59.084Z,4.70
2022-12-28T19:53:27.068Z,4.60
2022-12-28T19:56:04.362Z,4.60
2022-12-28T19:58:35.366Z,4.60
2022-12-28T20:01:12.373Z,4.50
2022-12-28T20:03:39.875Z,4.50
2022-12-28T20:06:06.809Z,4.60
2022-12-28T20:08:33.717Z,4.50
2022-12-28T20:11:00.363Z,4.60
2022-12-28T20:13:27.125Z,4.60
2022-12-28T20:15:53.791Z,4.60
2022-12-28T20:18:20.499Z,4.60
2022-12-28T20:21:17.740Z,4.60
2022-12-28T20:23:36.116Z,4.60
2022-12-28T20:26:02.761Z,4.60
2022-12-28T20:28:29.445Z,4.60
2022-12-28T20:30:59.806Z,4.50
2022-12-28T20:33:26.711Z,4.50
2022-12-28T20:36:03.947Z,4.60
2022-12-28T20:38:30.622Z,4.60
2022-12-28T20:41:04.397Z,4.60
2022-12-28T20:43:31.045Z,4.50
2022-12-28T20:45:57.877Z,4.60
2022-12-28T20:48:24.895Z,4.60
2022-12-28T20:51:01.024Z,4.60
2022-12-28T20:53:28.009Z,4.60
2022-12-28T20:55:54.735Z,4.50
2022-12-28T20:58:21.711Z,6.70
2022-12-28T21:00:48.353Z,4.60
2022-12-28T21:03:14.992Z,4.50
2022-12-28T21:05:41.716Z,4.50
2022-12-28T21:08:08.414Z,5.90
2022-12-28T21:10:35.310Z,6.40
2022-12-28T21:13:02.040Z,4.40
2022-12-28T21:15:28.706Z,6.80
2022-12-28T21:17:55.459Z,5.70
2022-12-28T21:20:22.133Z,5.80
2022-12-28T21:22:50.448Z,6.90
2022-12-28T21:25:17.043Z,6.30
2022-12-28T21:27:43.708Z,4.60
2022-12-28T21:30:10.634Z,5.80
2022-12-28T21:32:37.205Z,4.60
2022-12-28T21:35:03.984Z,4.70
2022-12-28T21:37:36.699Z,4.60
2022-12-28T21:40:05.319Z,4.80
2022-12-28T21:42:32.001Z,6.40
2022-12-28T21:44:58.646Z,5.10
2022-12-28T21:47:25.386Z,5.20
2022-12-28T21:49:52.094Z,5.30
2022-12-28T21:52:18.882Z,5.50
2022-12-28T21:54:45.508Z,7.10
2022-12-28T21:57:12.713Z,5.50
2022-12-28T21:59:39.550Z,5.50
2022-12-28T22:02:35.499Z,5.60
2022-12-28T22:05:21.426Z,5.60
2022-12-28T22:07:48.210Z,5.70
2022-12-28T22:10:33.388Z,5.70
2022-12-28T22:13:00.123Z,5.70
2022-12-28T22:15:45.542Z,5.70
2022-12-28T22:18:37.011Z,5.70
2022-12-28T22:21:06.186Z,5.60
2022-12-28T22:23:35.121Z,5.60
2022-12-28T22:26:02.084Z,5.70
2022-12-28T22:28:28.778Z,7.00
2022-12-28T22:30:55.370Z,5.70
2022-12-28T22:33:22.038Z,5.70
2022-12-28T22:35:48.813Z,5.70
2022-12-28T22:38:15.467Z,5.80
2022-12-28T22:40:42.072Z,5.80
2022-12-28T22:43:08.747Z,5.90
2022-12-28T22:45:35.445Z,5.90
2022-12-28T22:48:02.133Z,5.90
2022-12-28T22:50:29.262Z,5.90
2022-12-28T22:52:56.413Z,6.00
2022-12-28T22:55:23.088Z,6.00
2022-12-28T22:57:49.709Z,6.10
2022-12-28T23:00:18.036Z,6.20
2022-12-28T23:02:44.944Z,6.20
2022-12-28T23:05:11.745Z,6.40
2022-12-28T23:07:39.478Z,8.10
2022-12-28T23:10:07.151Z,6.50
2022-12-28T23:12:33.821Z,6.50
2022-12-28T23:15:15.789Z,6.60
2022-12-28T23:17:42.645Z,6.70
2022-12-28T23:20:28.567Z,8.10
2022-12-28T23:23:13.902Z,6.60
2022-12-28T23:25:59.781Z,6.60
2022-12-28T23:28:26.670Z,6.60
2022-12-28T23:30:53.437Z,6.60
2022-12-28T23:33:20.165Z,6.60
2022-12-28T23:35:46.808Z,6.30
2022-12-28T23:38:13.487Z,6.60
2022-12-28T23:40:41.008Z,6.60
2022-12-28T23:43:07.688Z,6.60
2022-12-28T23:45:34.637Z,6.60
2022-12-28T23:48:01.291Z,6.80
2022-12-28T23:50:27.913Z,6.80
2022-12-28T23:52:54.562Z,6.80
2022-12-28T23:55:21.115Z,6.90
2022-12-28T23:57:47.777Z,7.00
